sensor_id;sensor_type;location;lat;lon;timestamp;temperature;humidity
12329;DHT22;6230;52.390;10.256;2022-09-23T00:00:35;14.60;58.00
12329;DHT22;6230;52.390;10.256;2022-09-23T00:03:00;14.60;58.10
12329;DHT22;6230;52.390;10.256;2022-09-23T00:05:27;14.60;58.10
12329;DHT22;6230;52.390;10.256;2022-09-23T00:07:52;14.60;58.10
12329;DHT22;6230;52.390;10.256;2022-09-23T00:10:20;14.60;58.00
12329;DHT22;6230;52.390;10.256;2022-09-23T00:12:45;14.60;58.10
12329;DHT22;6230;52.390;10.256;2022-09-23T00:15:11;14.60;58.10
12329;DHT22;6230;52.390;10.256;2022-09-23T00:17:36;14.60;58.20
12329;DHT22;6230;52.390;10.256;2022-09-23T00:20:03;14.60;58.20
12329;DHT22;6230;52.390;10.256;2022-09-23T00:22:29;14.60;58.30
12329;DHT22;6230;52.390;10.256;2022-09-23T00:24:54;14.50;58.40
12329;DHT22;6230;52.390;10.256;2022-09-23T00:27:20;14.50;58.40
12329;DHT22;6230;52.390;10.256;2022-09-23T00:29:47;14.50;58.50
12329;DHT22;6230;52.390;10.256;2022-09-23T00:32:13;14.50;58.50
12329;DHT22;6230;52.390;10.256;2022-09-23T00:34:38;14.50;58.50
12329;DHT22;6230;52.390;10.256;2022-09-23T00:37:04;14.50;58.50
12329;DHT22;6230;52.390;10.256;2022-09-23T00:39:29;14.50;58.50
12329;DHT22;6230;52.390;10.256;2022-09-23T00:41:55;14.50;58.50
12329;DHT22;6230;52.390;10.256;2022-09-23T00:44:41;14.50;58.70
12329;DHT22;6230;52.390;10.256;2022-09-23T00:49:38;14.40;58.70
12329;DHT22;6230;52.390;10.256;2022-09-23T00:52:13;14.40;58.80
12329;DHT22;6230;52.390;10.256;2022-09-23T00:54:40;14.30;58.80
12329;DHT22;6230;52.390;10.256;2022-09-23T00:57:07;14.30;58.90
12329;DHT22;6230;52.390;10.256;2022-09-23T00:59:35;14.30;58.90
12329;DHT22;6230;52.390;10.256;2022-09-23T01:02:02;14.30;59.00
12329;DHT22;6230;52.390;10.256;2022-09-23T01:04:29;14.30;58.90
12329;DHT22;6230;52.390;10.256;2022-09-23T01:06:54;14.30;59.00
12329;DHT22;6230;52.390;10.256;2022-09-23T01:09:21;14.20;59.00
12329;DHT22;6230;52.390;10.256;2022-09-23T01:15:03;14.20;59.20
12329;DHT22;6230;52.390;10.256;2022-09-23T01:17:43;14.20;59.10
12329;DHT22;6230;52.390;10.256;2022-09-23T01:20:34;14.10;59.20
12329;DHT22;6230;52.390;10.256;2022-09-23T01:32:11;14.00;59.20
12329;DHT22;6230;52.390;10.256;2022-09-23T01:37:24;14.00;59.10
12329;DHT22;6230;52.390;10.256;2022-09-23T01:40:02;14.00;59.20
12329;DHT22;6230;52.390;10.256;2022-09-23T01:42:51;14.00;59.10
12329;DHT22;6230;52.390;10.256;2022-09-23T01:45:25;13.90;59.20
12329;DHT22;6230;52.390;10.256;2022-09-23T01:48:00;13.90;59.20
12329;DHT22;6230;52.390;10.256;2022-09-23T01:50:33;13.90;59.30
12329;DHT22;6230;52.390;10.256;2022-09-23T01:53:44;13.90;59.30
12329;DHT22;6230;52.390;10.256;2022-09-23T01:56:22;13.90;59.30
12329;DHT22;6230;52.390;10.256;2022-09-23T01:58:59;13.90;59.10
12329;DHT22;6230;52.390;10.256;2022-09-23T02:02:22;13.90;59.10
12329;DHT22;6230;52.390;10.256;2022-09-23T02:04:42;13.90;59.20
12329;DHT22;6230;52.390;10.256;2022-09-23T02:07:20;13.90;59.10
12329;DHT22;6230;52.390;10.256;2022-09-23T02:10:16;13.90;59.00
12329;DHT22;6230;52.390;10.256;2022-09-23T02:12:46;13.90;59.10
12329;DHT22;6230;52.390;10.256;2022-09-23T02:15:18;13.90;58.90
12329;DHT22;6230;52.390;10.256;2022-09-23T02:17:50;14.00;58.90
12329;DHT22;6230;52.390;10.256;2022-09-23T02:20:27;13.90;58.90
12329;DHT22;6230;52.390;10.256;2022-09-23T02:23:00;14.00;58.90
12329;DHT22;6230;52.390;10.256;2022-09-23T02:25:37;14.00;58.80
12329;DHT22;6230;52.390;10.256;2022-09-23T02:28:15;14.00;58.80
12329;DHT22;6230;52.390;10.256;2022-09-23T02:30:52;14.00;58.70
12329;DHT22;6230;52.390;10.256;2022-09-23T02:33:26;14.00;58.70
12329;DHT22;6230;52.390;10.256;2022-09-23T02:36:16;14.00;58.60
12329;DHT22;6230;52.390;10.256;2022-09-23T02:38:52;14.00;58.80
12329;DHT22;6230;52.390;10.256;2022-09-23T02:46:30;14.00;58.70
12329;DHT22;6230;52.390;10.256;2022-09-23T02:51:26;14.10;58.80
12329;DHT22;6230;52.390;10.256;2022-09-23T02:53:54;14.10;58.70
12329;DHT22;6230;52.390;10.256;2022-09-23T02:56:21;14.10;58.70
12329;DHT22;6230;52.390;10.256;2022-09-23T02:58:48;14.20;58.70
12329;DHT22;6230;52.390;10.256;2022-09-23T03:01:42;14.20;58.60
12329;DHT22;6230;52.390;10.256;2022-09-23T03:15:22;14.20;58.50
12329;DHT22;6230;52.390;10.256;2022-09-23T03:20:50;14.20;58.50
12329;DHT22;6230;52.390;10.256;2022-09-23T03:23:23;14.20;58.50
12329;DHT22;6230;52.390;10.256;2022-09-23T03:25:52;14.20;58.50
12329;DHT22;6230;52.390;10.256;2022-09-23T03:28:19;14.20;58.50
12329;DHT22;6230;52.390;10.256;2022-09-23T03:30:50;14.20;58.50
12329;DHT22;6230;52.390;10.256;2022-09-23T03:33:19;14.20;58.60
12329;DHT22;6230;52.390;10.256;2022-09-23T03:35:51;14.20;58.50
12329;DHT22;6230;52.390;10.256;2022-09-23T03:38:39;14.20;58.50
12329;DHT22;6230;52.390;10.256;2022-09-23T03:41:12;14.20;58.50
12329;DHT22;6230;52.390;10.256;2022-09-23T03:43:43;14.20;58.50
12329;DHT22;6230;52.390;10.256;2022-09-23T03:46:09;14.10;58.50
12329;DHT22;6230;52.390;10.256;2022-09-23T03:48:35;14.10;58.70
12329;DHT22;6230;52.390;10.256;2022-09-23T03:51:18;14.00;58.60
12329;DHT22;6230;52.390;10.256;2022-09-23T03:53:44;13.90;58.80
12329;DHT22;6230;52.390;10.256;2022-09-23T03:56:10;13.80;58.70
12329;DHT22;6230;52.390;10.256;2022-09-23T03:58:36;13.80;58.80
12329;DHT22;6230;52.390;10.256;2022-09-23T04:01:02;13.70;58.90
12329;DHT22;6230;52.390;10.256;2022-09-23T04:03:28;13.60;58.90
12329;DHT22;6230;52.390;10.256;2022-09-23T04:05:54;13.60;59.10
12329;DHT22;6230;52.390;10.256;2022-09-23T04:08:19;13.50;59.10
12329;DHT22;6230;52.390;10.256;2022-09-23T04:10:45;13.40;59.20
12329;DHT22;6230;52.390;10.256;2022-09-23T04:13:10;13.40;59.30
12329;DHT22;6230;52.390;10.256;2022-09-23T04:15:36;13.30;59.40
12329;DHT22;6230;52.390;10.256;2022-09-23T04:18:02;13.30;59.50
12329;DHT22;6230;52.390;10.256;2022-09-23T04:20:27;13.30;59.50
12329;DHT22;6230;52.390;10.256;2022-09-23T04:22:55;13.20;59.50
12329;DHT22;6230;52.390;10.256;2022-09-23T04:25:20;13.20;59.60
12329;DHT22;6230;52.390;10.256;2022-09-23T04:27:46;13.20;59.70
12329;DHT22;6230;52.390;10.256;2022-09-23T04:30:12;13.10;59.70
12329;DHT22;6230;52.390;10.256;2022-09-23T04:32:38;13.10;59.80
12329;DHT22;6230;52.390;10.256;2022-09-23T04:35:04;13.10;59.80
12329;DHT22;6230;52.390;10.256;2022-09-23T04:37:30;13.10;59.90
12329;DHT22;6230;52.390;10.256;2022-09-23T04:39:55;13.00;59.90
12329;DHT22;6230;52.390;10.256;2022-09-23T04:42:21;13.00;60.00
12329;DHT22;6230;52.390;10.256;2022-09-23T04:44:47;13.00;60.10
12329;DHT22;6230;52.390;10.256;2022-09-23T04:47:12;13.00;60.10
12329;DHT22;6230;52.390;10.256;2022-09-23T04:49:38;13.00;60.20
12329;DHT22;6230;52.390;10.256;2022-09-23T04:52:04;13.00;60.20
12329;DHT22;6230;52.390;10.256;2022-09-23T04:54:30;13.00;60.20
12329;DHT22;6230;52.390;10.256;2022-09-23T04:56:56;12.90;60.10
12329;DHT22;6230;52.390;10.256;2022-09-23T04:59:21;12.90;60.20
12329;DHT22;6230;52.390;10.256;2022-09-23T05:01:47;12.90;60.30
12329;DHT22;6230;52.390;10.256;2022-09-23T05:04:12;12.90;60.40
12329;DHT22;6230;52.390;10.256;2022-09-23T05:06:38;12.90;60.60
12329;DHT22;6230;52.390;10.256;2022-09-23T05:09:06;12.80;60.60
12329;DHT22;6230;52.390;10.256;2022-09-23T05:11:32;12.80;60.70
12329;DHT22;6230;52.390;10.256;2022-09-23T05:13:58;12.80;60.70
12329;DHT22;6230;52.390;10.256;2022-09-23T05:16:24;12.80;60.90
12329;DHT22;6230;52.390;10.256;2022-09-23T05:18:51;12.80;60.90
12329;DHT22;6230;52.390;10.256;2022-09-23T05:21:19;12.80;60.90
12329;DHT22;6230;52.390;10.256;2022-09-23T05:23:50;12.80;61.00
12329;DHT22;6230;52.390;10.256;2022-09-23T05:26:20;12.80;61.00
12329;DHT22;6230;52.390;10.256;2022-09-23T05:28:45;12.90;60.90
12329;DHT22;6230;52.390;10.256;2022-09-23T05:31:12;12.90;61.00
12329;DHT22;6230;52.390;10.256;2022-09-23T05:33:39;12.90;61.10
12329;DHT22;6230;52.390;10.256;2022-09-23T05:36:06;13.00;61.10
12329;DHT22;6230;52.390;10.256;2022-09-23T05:38:32;13.10;61.10
12329;DHT22;6230;52.390;10.256;2022-09-23T05:41:03;13.20;61.10
12329;DHT22;6230;52.390;10.256;2022-09-23T05:43:30;13.30;61.00
12329;DHT22;6230;52.390;10.256;2022-09-23T05:48:29;13.40;60.50
12329;DHT22;6230;52.390;10.256;2022-09-23T05:50:56;13.40;60.30
12329;DHT22;6230;52.390;10.256;2022-09-23T05:53:23;13.40;60.20
12329;DHT22;6230;52.390;10.256;2022-09-23T05:55:48;13.40;60.20
12329;DHT22;6230;52.390;10.256;2022-09-23T05:58:14;13.40;60.20
12329;DHT22;6230;52.390;10.256;2022-09-23T06:00:41;13.30;60.20
12329;DHT22;6230;52.390;10.256;2022-09-23T06:03:17;13.30;60.30
12329;DHT22;6230;52.390;10.256;2022-09-23T06:05:43;13.30;60.40
12329;DHT22;6230;52.390;10.256;2022-09-23T06:08:10;13.30;60.40
12329;DHT22;6230;52.390;10.256;2022-09-23T06:10:37;13.30;60.50
12329;DHT22;6230;52.390;10.256;2022-09-23T06:13:02;13.20;60.50
12329;DHT22;6230;52.390;10.256;2022-09-23T06:15:28;13.20;60.60
12329;DHT22;6230;52.390;10.256;2022-09-23T06:17:54;13.20;60.60
12329;DHT22;6230;52.390;10.256;2022-09-23T06:20:19;13.20;60.70
12329;DHT22;6230;52.390;10.256;2022-09-23T06:22:45;13.30;60.70
12329;DHT22;6230;52.390;10.256;2022-09-23T06:25:10;13.30;60.80
12329;DHT22;6230;52.390;10.256;2022-09-23T06:27:37;13.30;60.80
12329;DHT22;6230;52.390;10.256;2022-09-23T06:30:03;13.30;60.90
12329;DHT22;6230;52.390;10.256;2022-09-23T06:32:29;13.30;60.90
12329;DHT22;6230;52.390;10.256;2022-09-23T06:34:54;13.40;60.90
12329;DHT22;6230;52.390;10.256;2022-09-23T06:37:20;13.40;60.90
12329;DHT22;6230;52.390;10.256;2022-09-23T06:39:47;13.50;60.90
12329;DHT22;6230;52.390;10.256;2022-09-23T06:42:13;13.50;60.90
12329;DHT22;6230;52.390;10.256;2022-09-23T06:44:40;13.60;60.90
12329;DHT22;6230;52.390;10.256;2022-09-23T06:47:05;13.70;60.90
12329;DHT22;6230;52.390;10.256;2022-09-23T06:49:31;13.70;60.90
12329;DHT22;6230;52.390;10.256;2022-09-23T06:51:56;13.80;60.80
12329;DHT22;6230;52.390;10.256;2022-09-23T06:54:22;13.80;60.80
12329;DHT22;6230;52.390;10.256;2022-09-23T06:56:47;13.90;60.90
12329;DHT22;6230;52.390;10.256;2022-09-23T06:59:13;14.00;60.80
12329;DHT22;6230;52.390;10.256;2022-09-23T07:01:41;14.00;60.80
12329;DHT22;6230;52.390;10.256;2022-09-23T07:04:08;14.00;60.80
12329;DHT22;6230;52.390;10.256;2022-09-23T07:06:35;14.10;60.80
12329;DHT22;6230;52.390;10.256;2022-09-23T07:09:01;14.10;60.70
12329;DHT22;6230;52.390;10.256;2022-09-23T07:11:27;14.10;60.70
12329;DHT22;6230;52.390;10.256;2022-09-23T07:13:53;14.10;60.80
12329;DHT22;6230;52.390;10.256;2022-09-23T07:16:19;14.20;60.90
12329;DHT22;6230;52.390;10.256;2022-09-23T07:18:45;14.20;60.80
12329;DHT22;6230;52.390;10.256;2022-09-23T07:21:13;14.30;60.70
12329;DHT22;6230;52.390;10.256;2022-09-23T07:23:40;14.30;60.70
12329;DHT22;6230;52.390;10.256;2022-09-23T07:26:06;14.30;60.70
12329;DHT22;6230;52.390;10.256;2022-09-23T07:28:33;14.30;60.70
12329;DHT22;6230;52.390;10.256;2022-09-23T07:31:10;14.40;60.70
12329;DHT22;6230;52.390;10.256;2022-09-23T07:33:37;14.40;60.70
12329;DHT22;6230;52.390;10.256;2022-09-23T07:36:12;14.50;60.60
12329;DHT22;6230;52.390;10.256;2022-09-23T07:38:38;14.50;60.70
12329;DHT22;6230;52.390;10.256;2022-09-23T07:41:06;14.50;60.60
12329;DHT22;6230;52.390;10.256;2022-09-23T07:43:33;14.60;60.60
12329;DHT22;6230;52.390;10.256;2022-09-23T07:46:08;14.60;60.50
12329;DHT22;6230;52.390;10.256;2022-09-23T07:48:36;14.70;60.50
12329;DHT22;6230;52.390;10.256;2022-09-23T07:51:31;14.70;60.30
12329;DHT22;6230;52.390;10.256;2022-09-23T07:53:57;14.80;60.30
12329;DHT22;6230;52.390;10.256;2022-09-23T07:56:26;14.80;61.10
12329;DHT22;6230;52.390;10.256;2022-09-23T07:58:51;14.90;60.30
12329;DHT22;6230;52.390;10.256;2022-09-23T08:01:54;14.90;60.30
12329;DHT22;6230;52.390;10.256;2022-09-23T08:04:27;15.00;60.50
12329;DHT22;6230;52.390;10.256;2022-09-23T08:06:55;15.10;60.40
12329;DHT22;6230;52.390;10.256;2022-09-23T08:09:25;15.20;60.40
12329;DHT22;6230;52.390;10.256;2022-09-23T08:11:51;15.30;60.20
12329;DHT22;6230;52.390;10.256;2022-09-23T08:14:17;15.40;60.10
12329;DHT22;6230;52.390;10.256;2022-09-23T08:16:44;15.50;60.00
12329;DHT22;6230;52.390;10.256;2022-09-23T08:19:11;15.60;59.90
12329;DHT22;6230;52.390;10.256;2022-09-23T08:21:37;15.60;59.80
12329;DHT22;6230;52.390;10.256;2022-09-23T08:24:05;15.70;59.70
12329;DHT22;6230;52.390;10.256;2022-09-23T08:26:30;15.80;59.70
12329;DHT22;6230;52.390;10.256;2022-09-23T08:28:58;15.90;59.60
12329;DHT22;6230;52.390;10.256;2022-09-23T08:31:24;16.00;59.60
12329;DHT22;6230;52.390;10.256;2022-09-23T08:33:56;16.10;59.50
12329;DHT22;6230;52.390;10.256;2022-09-23T08:36:23;16.10;59.30
12329;DHT22;6230;52.390;10.256;2022-09-23T08:38:49;16.20;59.20
12329;DHT22;6230;52.390;10.256;2022-09-23T08:41:24;16.30;59.10
12329;DHT22;6230;52.390;10.256;2022-09-23T08:43:57;16.50;59.10
12329;DHT22;6230;52.390;10.256;2022-09-23T08:46:29;16.60;58.80
12329;DHT22;6230;52.390;10.256;2022-09-23T08:48:58;16.70;58.70
12329;DHT22;6230;52.390;10.256;2022-09-23T08:51:35;16.90;58.60
12329;DHT22;6230;52.390;10.256;2022-09-23T08:54:04;17.00;58.30
12329;DHT22;6230;52.390;10.256;2022-09-23T08:56:30;17.10;58.10
12329;DHT22;6230;52.390;10.256;2022-09-23T08:59:22;17.20;57.90
12329;DHT22;6230;52.390;10.256;2022-09-23T09:02:05;17.30;57.50
12329;DHT22;6230;52.390;10.256;2022-09-23T09:10:05;17.50;56.60
12329;DHT22;6230;52.390;10.256;2022-09-23T09:12:43;17.70;56.40
12329;DHT22;6230;52.390;10.256;2022-09-23T09:17:38;18.00;56.20
12329;DHT22;6230;52.390;10.256;2022-09-23T09:20:38;18.20;56.00
12329;DHT22;6230;52.390;10.256;2022-09-23T09:23:21;18.40;55.40
12329;DHT22;6230;52.390;10.256;2022-09-23T09:26:00;18.60;55.10
12329;DHT22;6230;52.390;10.256;2022-09-23T09:28:27;18.70;54.90
12329;DHT22;6230;52.390;10.256;2022-09-23T09:34:31;19.00;54.20
12329;DHT22;6230;52.390;10.256;2022-09-23T09:37:40;19.20;54.20
12329;DHT22;6230;52.390;10.256;2022-09-23T09:40:04;19.40;53.70
12329;DHT22;6230;52.390;10.256;2022-09-23T09:42:39;19.40;53.70
12329;DHT22;6230;52.390;10.256;2022-09-23T09:45:22;19.60;53.40
12329;DHT22;6230;52.390;10.256;2022-09-23T09:48:13;19.80;53.00
12329;DHT22;6230;52.390;10.256;2022-09-23T09:50:47;19.90;52.90
12329;DHT22;6230;52.390;10.256;2022-09-23T09:55:40;20.10;52.20
12329;DHT22;6230;52.390;10.256;2022-09-23T09:58:09;20.20;52.00
12329;DHT22;6230;52.390;10.256;2022-09-23T10:00:40;20.20;51.70
12329;DHT22;6230;52.390;10.256;2022-09-23T10:08:33;20.60;51.30
12329;DHT22;6230;52.390;10.256;2022-09-23T10:11:11;20.70;51.00
12329;DHT22;6230;52.390;10.256;2022-09-23T10:13:39;20.90;50.70
12329;DHT22;6230;52.390;10.256;2022-09-23T10:16:05;20.90;50.60
12329;DHT22;6230;52.390;10.256;2022-09-23T10:18:36;21.10;50.50
12329;DHT22;6230;52.390;10.256;2022-09-23T10:21:06;21.20;49.90
12329;DHT22;6230;52.390;10.256;2022-09-23T10:23:33;21.30;49.60
12329;DHT22;6230;52.390;10.256;2022-09-23T10:26:05;21.30;49.60
12329;DHT22;6230;52.390;10.256;2022-09-23T10:31:31;21.40;49.20
12329;DHT22;6230;52.390;10.256;2022-09-23T10:34:44;21.40;48.60
12329;DHT22;6230;52.390;10.256;2022-09-23T10:37:00;21.40;48.80
12329;DHT22;6230;52.390;10.256;2022-09-23T10:39:26;21.50;48.70
12329;DHT22;6230;52.390;10.256;2022-09-23T10:42:26;21.60;48.70
12329;DHT22;6230;52.390;10.256;2022-09-23T10:45:30;21.80;49.00
12329;DHT22;6230;52.390;10.256;2022-09-23T10:51:19;22.10;47.30
12329;DHT22;6230;52.390;10.256;2022-09-23T10:54:02;22.20;47.00
12329;DHT22;6230;52.390;10.256;2022-09-23T10:56:42;22.30;47.10
12329;DHT22;6230;52.390;10.256;2022-09-23T11:02:22;22.40;46.10
12329;DHT22;6230;52.390;10.256;2022-09-23T11:10:54;22.40;45.60
12329;DHT22;6230;52.390;10.256;2022-09-23T11:21:56;22.60;45.30
12329;DHT22;6230;52.390;10.256;2022-09-23T11:30:00;22.70;45.20
12329;DHT22;6230;52.390;10.256;2022-09-23T11:35:44;22.70;44.30
12329;DHT22;6230;52.390;10.256;2022-09-23T11:38:21;22.60;44.60
12329;DHT22;6230;52.390;10.256;2022-09-23T11:41:10;22.60;44.30
12329;DHT22;6230;52.390;10.256;2022-09-23T11:43:37;22.70;44.20
12329;DHT22;6230;52.390;10.256;2022-09-23T11:55:00;23.00;43.40
12329;DHT22;6230;52.390;10.256;2022-09-23T11:57:31;23.10;43.10
12329;DHT22;6230;52.390;10.256;2022-09-23T12:00:02;23.10;43.10
12329;DHT22;6230;52.390;10.256;2022-09-23T12:02:52;23.20;43.00
12329;DHT22;6230;52.390;10.256;2022-09-23T12:05:26;23.30;42.30
12329;DHT22;6230;52.390;10.256;2022-09-23T12:10:47;23.30;42.40
12329;DHT22;6230;52.390;10.256;2022-09-23T12:13:31;23.50;42.50
12329;DHT22;6230;52.390;10.256;2022-09-23T12:26:29;23.80;41.80
12329;DHT22;6230;52.390;10.256;2022-09-23T12:29:00;23.70;42.00
12329;DHT22;6230;52.390;10.256;2022-09-23T12:31:28;23.70;41.90
12329;DHT22;6230;52.390;10.256;2022-09-23T12:33:58;23.70;42.50
12329;DHT22;6230;52.390;10.256;2022-09-23T12:36:34;23.70;41.60
12329;DHT22;6230;52.390;10.256;2022-09-23T12:39:03;23.70;41.20
12329;DHT22;6230;52.390;10.256;2022-09-23T12:41:34;23.60;41.40
12329;DHT22;6230;52.390;10.256;2022-09-23T12:46:46;23.60;41.30
12329;DHT22;6230;52.390;10.256;2022-09-23T12:49:23;23.50;41.30
12329;DHT22;6230;52.390;10.256;2022-09-23T12:54:38;23.30;41.10
12329;DHT22;6230;52.390;10.256;2022-09-23T12:57:11;23.30;41.30
12329;DHT22;6230;52.390;10.256;2022-09-23T12:59:56;23.20;41.10
12329;DHT22;6230;52.390;10.256;2022-09-23T13:02:35;23.20;41.10
12329;DHT22;6230;52.390;10.256;2022-09-23T13:07:54;23.10;41.20
12329;DHT22;6230;52.390;10.256;2022-09-23T13:10:28;23.10;41.10
12329;DHT22;6230;52.390;10.256;2022-09-23T13:12:54;23.00;41.00
12329;DHT22;6230;52.390;10.256;2022-09-23T13:15:32;22.90;41.10
12329;DHT22;6230;52.390;10.256;2022-09-23T13:20:54;22.90;40.90
12329;DHT22;6230;52.390;10.256;2022-09-23T13:23:25;22.80;41.10
12329;DHT22;6230;52.390;10.256;2022-09-23T13:25:54;22.80;41.10
12329;DHT22;6230;52.390;10.256;2022-09-23T13:28:39;22.70;41.10
12329;DHT22;6230;52.390;10.256;2022-09-23T13:31:13;22.70;41.20
12329;DHT22;6230;52.390;10.256;2022-09-23T13:33:49;22.60;41.20
12329;DHT22;6230;52.390;10.256;2022-09-23T13:36:18;22.60;41.20
12329;DHT22;6230;52.390;10.256;2022-09-23T13:38:44;22.60;41.20
12329;DHT22;6230;52.390;10.256;2022-09-23T13:41:19;22.50;41.30
12329;DHT22;6230;52.390;10.256;2022-09-23T13:43:49;22.50;41.20
12329;DHT22;6230;52.390;10.256;2022-09-23T13:46:19;22.50;41.30
12329;DHT22;6230;52.390;10.256;2022-09-23T13:48:47;22.50;41.30
12329;DHT22;6230;52.390;10.256;2022-09-23T13:51:33;22.50;41.60
12329;DHT22;6230;52.390;10.256;2022-09-23T13:54:01;22.60;41.40
12329;DHT22;6230;52.390;10.256;2022-09-23T13:56:30;22.60;41.60
12329;DHT22;6230;52.390;10.256;2022-09-23T14:01:44;22.50;41.30
12329;DHT22;6230;52.390;10.256;2022-09-23T14:04:22;22.50;41.60
12329;DHT22;6230;52.390;10.256;2022-09-23T14:06:48;22.50;41.40
12329;DHT22;6230;52.390;10.256;2022-09-23T14:09:14;22.40;41.60
12329;DHT22;6230;52.390;10.256;2022-09-23T14:11:40;22.40;41.50
12329;DHT22;6230;52.390;10.256;2022-09-23T14:14:06;22.40;41.60
12329;DHT22;6230;52.390;10.256;2022-09-23T14:16:35;22.40;41.50
12329;DHT22;6230;52.390;10.256;2022-09-23T14:19:02;22.40;41.40
12329;DHT22;6230;52.390;10.256;2022-09-23T14:21:38;22.30;41.40
12329;DHT22;6230;52.390;10.256;2022-09-23T14:27:03;22.20;41.20
12329;DHT22;6230;52.390;10.256;2022-09-23T14:29:33;22.20;41.30
12329;DHT22;6230;52.390;10.256;2022-09-23T14:32:02;22.20;41.50
12329;DHT22;6230;52.390;10.256;2022-09-23T14:34:51;22.20;41.50
12329;DHT22;6230;52.390;10.256;2022-09-23T14:40:07;22.20;41.70
12329;DHT22;6230;52.390;10.256;2022-09-23T14:42:40;22.20;41.50
12329;DHT22;6230;52.390;10.256;2022-09-23T14:45:13;22.20;41.50
12329;DHT22;6230;52.390;10.256;2022-09-23T14:47:44;22.20;41.60
12329;DHT22;6230;52.390;10.256;2022-09-23T14:50:15;22.30;41.70
12329;DHT22;6230;52.390;10.256;2022-09-23T14:53:00;22.30;41.70
12329;DHT22;6230;52.390;10.256;2022-09-23T14:55:27;22.30;41.70
12329;DHT22;6230;52.390;10.256;2022-09-23T14:58:01;22.30;41.70
12329;DHT22;6230;52.390;10.256;2022-09-23T15:00:28;22.30;41.50
12329;DHT22;6230;52.390;10.256;2022-09-23T15:02:57;22.30;41.70
12329;DHT22;6230;52.390;10.256;2022-09-23T15:05:31;22.30;41.90
12329;DHT22;6230;52.390;10.256;2022-09-23T15:08:04;22.30;42.00
12329;DHT22;6230;52.390;10.256;2022-09-23T15:10:32;22.30;42.00
12329;DHT22;6230;52.390;10.256;2022-09-23T15:13:17;22.20;41.90
12329;DHT22;6230;52.390;10.256;2022-09-23T15:15:44;22.20;42.00
12329;DHT22;6230;52.390;10.256;2022-09-23T15:18:27;22.20;42.20
12329;DHT22;6230;52.390;10.256;2022-09-23T15:21:01;22.20;42.00
12329;DHT22;6230;52.390;10.256;2022-09-23T15:26:03;22.10;42.20
12329;DHT22;6230;52.390;10.256;2022-09-23T15:28:30;22.00;42.40
12329;DHT22;6230;52.390;10.256;2022-09-23T15:30:55;22.00;42.50
12329;DHT22;6230;52.390;10.256;2022-09-23T15:33:21;22.00;42.50
12329;DHT22;6230;52.390;10.256;2022-09-23T15:35:52;21.90;42.50
12329;DHT22;6230;52.390;10.256;2022-09-23T15:38:21;21.90;42.60
12329;DHT22;6230;52.390;10.256;2022-09-23T15:40:47;21.90;42.80
12329;DHT22;6230;52.390;10.256;2022-09-23T15:43:16;21.90;42.80
12329;DHT22;6230;52.390;10.256;2022-09-23T15:45:45;21.90;42.90
12329;DHT22;6230;52.390;10.256;2022-09-23T15:48:14;21.90;43.00
12329;DHT22;6230;52.390;10.256;2022-09-23T15:50:40;21.90;43.10
12329;DHT22;6230;52.390;10.256;2022-09-23T15:53:09;21.90;43.20
12329;DHT22;6230;52.390;10.256;2022-09-23T15:55:36;21.90;43.20
12329;DHT22;6230;52.390;10.256;2022-09-23T15:58:02;21.80;43.30
12329;DHT22;6230;52.390;10.256;2022-09-23T16:00:28;21.80;43.50
12329;DHT22;6230;52.390;10.256;2022-09-23T16:02:53;21.80;43.70
12329;DHT22;6230;52.390;10.256;2022-09-23T16:05:27;21.70;43.70
12329;DHT22;6230;52.390;10.256;2022-09-23T16:07:57;21.70;44.00
12329;DHT22;6230;52.390;10.256;2022-09-23T16:10:24;21.80;44.30
12329;DHT22;6230;52.390;10.256;2022-09-23T16:12:51;21.80;44.50
12329;DHT22;6230;52.390;10.256;2022-09-23T16:15:19;21.80;45.00
12329;DHT22;6230;52.390;10.256;2022-09-23T16:17:45;21.80;45.50
12329;DHT22;6230;52.390;10.256;2022-09-23T16:20:12;21.80;45.90
12329;DHT22;6230;52.390;10.256;2022-09-23T16:22:39;21.80;46.30
12329;DHT22;6230;52.390;10.256;2022-09-23T16:25:07;21.80;46.40
12329;DHT22;6230;52.390;10.256;2022-09-23T16:27:34;21.80;46.20
12329;DHT22;6230;52.390;10.256;2022-09-23T16:29:59;21.70;46.20
12329;DHT22;6230;52.390;10.256;2022-09-23T16:32:25;21.70;46.20
12329;DHT22;6230;52.390;10.256;2022-09-23T16:34:51;21.70;46.40
12329;DHT22;6230;52.390;10.256;2022-09-23T16:37:16;21.70;46.70
12329;DHT22;6230;52.390;10.256;2022-09-23T16:39:47;21.70;47.00
12329;DHT22;6230;52.390;10.256;2022-09-23T16:42:13;21.60;47.30
12329;DHT22;6230;52.390;10.256;2022-09-23T16:44:39;21.60;47.50
12329;DHT22;6230;52.390;10.256;2022-09-23T16:47:06;21.60;47.60
12329;DHT22;6230;52.390;10.256;2022-09-23T16:49:31;21.60;47.80
12329;DHT22;6230;52.390;10.256;2022-09-23T16:51:57;21.60;48.10
12329;DHT22;6230;52.390;10.256;2022-09-23T16:54:23;21.60;48.20
12329;DHT22;6230;52.390;10.256;2022-09-23T16:56:49;21.50;48.30
12329;DHT22;6230;52.390;10.256;2022-09-23T16:59:15;21.50;48.50
12329;DHT22;6230;52.390;10.256;2022-09-23T17:01:41;21.50;48.80
12329;DHT22;6230;52.390;10.256;2022-09-23T17:04:25;21.40;49.00
12329;DHT22;6230;52.390;10.256;2022-09-23T17:06:52;21.50;49.30
12329;DHT22;6230;52.390;10.256;2022-09-23T17:09:20;21.40;49.40
12329;DHT22;6230;52.390;10.256;2022-09-23T17:11:56;21.30;49.60
12329;DHT22;6230;52.390;10.256;2022-09-23T17:14:23;21.30;49.70
12329;DHT22;6230;52.390;10.256;2022-09-23T17:16:48;21.30;49.80
12329;DHT22;6230;52.390;10.256;2022-09-23T17:19:14;21.20;50.00
12329;DHT22;6230;52.390;10.256;2022-09-23T17:21:39;21.20;50.20
12329;DHT22;6230;52.390;10.256;2022-09-23T17:24:05;21.20;50.30
12329;DHT22;6230;52.390;10.256;2022-09-23T17:26:31;21.10;50.40
12329;DHT22;6230;52.390;10.256;2022-09-23T17:28:57;21.10;50.40
12329;DHT22;6230;52.390;10.256;2022-09-23T17:31:26;21.10;50.60
12329;DHT22;6230;52.390;10.256;2022-09-23T17:33:52;21.00;50.70
12329;DHT22;6230;52.390;10.256;2022-09-23T17:36:19;21.00;50.80
12329;DHT22;6230;52.390;10.256;2022-09-23T17:38:46;20.90;50.90
12329;DHT22;6230;52.390;10.256;2022-09-23T17:41:13;20.90;50.90
12329;DHT22;6230;52.390;10.256;2022-09-23T17:43:40;20.90;51.00
12329;DHT22;6230;52.390;10.256;2022-09-23T17:46:10;20.90;51.10
12329;DHT22;6230;52.390;10.256;2022-09-23T17:48:40;20.80;51.20
12329;DHT22;6230;52.390;10.256;2022-09-23T17:51:16;20.80;51.40
12329;DHT22;6230;52.390;10.256;2022-09-23T17:53:45;20.80;51.80
12329;DHT22;6230;52.390;10.256;2022-09-23T17:56:22;20.80;51.80
12329;DHT22;6230;52.390;10.256;2022-09-23T17:58:49;20.70;52.00
12329;DHT22;6230;52.390;10.256;2022-09-23T18:01:20;20.70;52.00
12329;DHT22;6230;52.390;10.256;2022-09-23T18:03:46;20.70;52.00
12329;DHT22;6230;52.390;10.256;2022-09-23T18:06:16;20.60;52.10
12329;DHT22;6230;52.390;10.256;2022-09-23T18:08:45;20.60;52.30